sensor_id;sensor_type;location;lat;lon;timestamp;P1;durP1;ratioP1;P2;durP2;ratioP2
13741;SDS011;8461;52.356;10.704;2022-12-18T00:00:46;28.83;;;14.55;;
13741;SDS011;8461;52.356;10.704;2022-12-18T00:03:13;21.83;;;13.23;;
13741;SDS011;8461;52.356;10.704;2022-12-18T00:05:46;25.92;;;14.13;;
13741;SDS011;8461;52.356;10.704;2022-12-18T00:08:16;24.48;;;13.75;;
13741;SDS011;8461;52.356;10.704;2022-12-18T00:10:42;19.50;;;14.60;;
13741;SDS011;8461;52.356;10.704;2022-12-18T00:13:08;23.27;;;13.98;;
13741;SDS011;8461;52.356;10.704;2022-12-18T00:15:34;23.33;;;12.23;;
13741;SDS011;8461;52.356;10.704;2022-12-18T00:18:00;20.13;;;12.57;;
13741;SDS011;8461;52.356;10.704;2022-12-18T00:20:25;19.03;;;13.00;;
13741;SDS011;8461;52.356;10.704;2022-12-18T00:22:51;25.77;;;14.43;;
13741;SDS011;8461;52.356;10.704;2022-12-18T00:25:18;24.98;;;13.60;;
13741;SDS011;8461;52.356;10.704;2022-12-18T00:27:43;23.53;;;13.87;;
13741;SDS011;8461;52.356;10.704;2022-12-18T00:30:09;24.77;;;13.07;;
13741;SDS011;8461;52.356;10.704;2022-12-18T00:32:35;19.00;;;12.07;;
13741;SDS011;8461;52.356;10.704;2022-12-18T00:35:00;21.23;;;11.60;;
13741;SDS011;8461;52.356;10.704;2022-12-18T00:37:26;15.90;;;10.53;;
13741;SDS011;8461;52.356;10.704;2022-12-18T00:39:52;19.73;;;11.43;;
13741;SDS011;8461;52.356;10.704;2022-12-18T00:42:17;28.10;;;13.17;;
13741;SDS011;8461;52.356;10.704;2022-12-18T00:45:02;23.23;;;13.02;;
13741;SDS011;8461;52.356;10.704;2022-12-18T00:47:27;21.02;;;12.95;;
13741;SDS011;8461;52.356;10.704;2022-12-18T00:49:53;20.03;;;12.00;;
13741;SDS011;8461;52.356;10.704;2022-12-18T00:52:19;18.67;;;11.43;;
13741;SDS011;8461;52.356;10.704;2022-12-18T00:54:44;23.07;;;11.90;;
13741;SDS011;8461;52.356;10.704;2022-12-18T00:57:10;19.87;;;11.73;;
13741;SDS011;8461;52.356;10.704;2022-12-18T00:59:35;19.83;;;11.63;;
13741;SDS011;8461;52.356;10.704;2022-12-18T01:02:01;23.37;;;12.73;;
13741;SDS011;8461;52.356;10.704;2022-12-18T01:04:26;18.67;;;11.03;;
13741;SDS011;8461;52.356;10.704;2022-12-18T01:06:52;19.20;;;11.07;;
13741;SDS011;8461;52.356;10.704;2022-12-18T01:09:17;21.53;;;12.37;;
13741;SDS011;8461;52.356;10.704;2022-12-18T01:11:43;19.00;;;10.30;;
13741;SDS011;8461;52.356;10.704;2022-12-18T01:14:08;22.20;;;11.53;;
13741;SDS011;8461;52.356;10.704;2022-12-18T01:16:34;18.13;;;10.98;;
13741;SDS011;8461;52.356;10.704;2022-12-18T01:19:00;22.47;;;11.63;;
13741;SDS011;8461;52.356;10.704;2022-12-18T01:21:25;23.33;;;12.77;;
13741;SDS011;8461;52.356;10.704;2022-12-18T01:23:52;23.40;;;13.17;;
13741;SDS011;8461;52.356;10.704;2022-12-18T01:26:19;32.00;;;16.67;;
13741;SDS011;8461;52.356;10.704;2022-12-18T01:28:45;24.17;;;12.63;;
13741;SDS011;8461;52.356;10.704;2022-12-18T01:31:12;24.00;;;12.80;;
13741;SDS011;8461;52.356;10.704;2022-12-18T01:33:49;24.98;;;12.15;;
13741;SDS011;8461;52.356;10.704;2022-12-18T01:36:25;20.88;;;10.90;;
13741;SDS011;8461;52.356;10.704;2022-12-18T01:38:53;22.58;;;10.82;;
13741;SDS011;8461;52.356;10.704;2022-12-18T01:41:21;19.83;;;9.95;;
13741;SDS011;8461;52.356;10.704;2022-12-18T01:43:56;20.45;;;11.05;;
13741;SDS011;8461;52.356;10.704;2022-12-18T01:46:23;21.48;;;10.77;;
13741;SDS011;8461;52.356;10.704;2022-12-18T01:48:50;22.65;;;12.48;;
13741;SDS011;8461;52.356;10.704;2022-12-18T01:51:24;18.95;;;10.52;;
13741;SDS011;8461;52.356;10.704;2022-12-18T01:53:51;18.95;;;10.73;;
13741;SDS011;8461;52.356;10.704;2022-12-18T01:56:18;14.90;;;9.97;;
13741;SDS011;8461;52.356;10.704;2022-12-18T02:01:28;17.10;;;9.80;;
13741;SDS011;8461;52.356;10.704;2022-12-18T02:03:55;15.95;;;9.55;;
13741;SDS011;8461;52.356;10.704;2022-12-18T02:06:22;16.27;;;8.53;;
13741;SDS011;8461;52.356;10.704;2022-12-18T02:08:57;17.00;;;9.60;;
13741;SDS011;8461;52.356;10.704;2022-12-18T02:11:37;14.80;;;9.73;;
13741;SDS011;8461;52.356;10.704;2022-12-18T02:14:43;20.88;;;9.32;;
13741;SDS011;8461;52.356;10.704;2022-12-18T02:17:46;16.85;;;9.35;;
13741;SDS011;8461;52.356;10.704;2022-12-18T02:20:23;20.13;;;9.55;;
13741;SDS011;8461;52.356;10.704;2022-12-18T02:23:09;21.17;;;9.15;;
13741;SDS011;8461;52.356;10.704;2022-12-18T02:28:40;17.42;;;9.80;;
13741;SDS011;8461;52.356;10.704;2022-12-18T02:31:11;22.60;;;11.25;;
13741;SDS011;8461;52.356;10.704;2022-12-18T02:33:41;18.08;;;10.13;;
13741;SDS011;8461;52.356;10.704;2022-12-18T02:36:09;16.45;;;9.48;;
13741;SDS011;8461;52.356;10.704;2022-12-18T02:38:37;18.88;;;9.70;;
13741;SDS011;8461;52.356;10.704;2022-12-18T02:41:04;16.48;;;10.05;;
13741;SDS011;8461;52.356;10.704;2022-12-18T02:43:31;20.75;;;10.55;;
13741;SDS011;8461;52.356;10.704;2022-12-18T02:45:58;18.30;;;9.40;;
13741;SDS011;8461;52.356;10.704;2022-12-18T02:48:27;15.85;;;10.63;;
13741;SDS011;8461;52.356;10.704;2022-12-18T02:51:08;17.75;;;10.65;;
13741;SDS011;8461;52.356;10.704;2022-12-18T02:53:53;19.02;;;11.30;;
13741;SDS011;8461;52.356;10.704;2022-12-18T02:56:38;15.38;;;9.88;;
13741;SDS011;8461;52.356;10.704;2022-12-18T02:59:12;19.42;;;11.43;;
13741;SDS011;8461;52.356;10.704;2022-12-18T03:04:33;19.88;;;10.65;;
13741;SDS011;8461;52.356;10.704;2022-12-18T03:07:09;18.38;;;10.52;;
13741;SDS011;8461;52.356;10.704;2022-12-18T03:09:43;17.33;;;9.18;;
13741;SDS011;8461;52.356;10.704;2022-12-18T03:12:15;15.90;;;9.65;;
13741;SDS011;8461;52.356;10.704;2022-12-18T03:15:01;17.50;;;8.32;;
13741;SDS011;8461;52.356;10.704;2022-12-18T03:17:35;16.02;;;8.45;;
13741;SDS011;8461;52.356;10.704;2022-12-18T03:20:08;14.43;;;8.73;;
13741;SDS011;8461;52.356;10.704;2022-12-18T03:22:38;17.83;;;9.90;;
13741;SDS011;8461;52.356;10.704;2022-12-18T03:25:08;20.60;;;10.77;;
13741;SDS011;8461;52.356;10.704;2022-12-18T03:27:36;14.63;;;8.20;;
13741;SDS011;8461;52.356;10.704;2022-12-18T03:30:06;19.98;;;11.40;;
13741;SDS011;8461;52.356;10.704;2022-12-18T03:32:47;21.08;;;10.10;;
13741;SDS011;8461;52.356;10.704;2022-12-18T03:35:19;14.88;;;9.00;;
13741;SDS011;8461;52.356;10.704;2022-12-18T03:37:48;19.08;;;8.23;;
13741;SDS011;8461;52.356;10.704;2022-12-18T03:40:14;16.73;;;10.18;;
13741;SDS011;8461;52.356;10.704;2022-12-18T03:42:52;14.27;;;8.73;;
13741;SDS011;8461;52.356;10.704;2022-12-18T03:45:28;17.77;;;9.70;;
13741;SDS011;8461;52.356;10.704;2022-12-18T03:50:36;14.68;;;8.75;;
13741;SDS011;8461;52.356;10.704;2022-12-18T03:53:20;15.82;;;9.45;;
13741;SDS011;8461;52.356;10.704;2022-12-18T03:55:59;16.92;;;9.25;;
13741;SDS011;8461;52.356;10.704;2022-12-18T03:58:26;16.38;;;9.07;;
13741;SDS011;8461;52.356;10.704;2022-12-18T04:00:56;13.52;;;7.40;;
13741;SDS011;8461;52.356;10.704;2022-12-18T04:03:26;18.65;;;9.65;;
13741;SDS011;8461;52.356;10.704;2022-12-18T04:05:54;15.95;;;9.77;;
13741;SDS011;8461;52.356;10.704;2022-12-18T04:08:21;16.05;;;9.68;;
13741;SDS011;8461;52.356;10.704;2022-12-18T04:10:48;18.17;;;10.32;;
13741;SDS011;8461;52.356;10.704;2022-12-18T04:13:21;18.27;;;10.53;;
13741;SDS011;8461;52.356;10.704;2022-12-18T04:15:47;16.35;;;9.40;;
13741;SDS011;8461;52.356;10.704;2022-12-18T04:18:13;19.07;;;10.63;;
13741;SDS011;8461;52.356;10.704;2022-12-18T04:20:38;19.53;;;9.90;;
13741;SDS011;8461;52.356;10.704;2022-12-18T04:23:04;16.47;;;9.87;;
13741;SDS011;8461;52.356;10.704;2022-12-18T04:25:29;19.27;;;9.70;;
13741;SDS011;8461;52.356;10.704;2022-12-18T04:27:55;16.77;;;9.80;;
13741;SDS011;8461;52.356;10.704;2022-12-18T04:30:20;18.47;;;9.80;;
13741;SDS011;8461;52.356;10.704;2022-12-18T04:32:46;15.20;;;9.47;;
13741;SDS011;8461;52.356;10.704;2022-12-18T04:35:11;13.73;;;10.00;;
13741;SDS011;8461;52.356;10.704;2022-12-18T04:37:37;18.17;;;9.73;;
13741;SDS011;8461;52.356;10.704;2022-12-18T04:40:04;15.37;;;9.20;;
13741;SDS011;8461;52.356;10.704;2022-12-18T04:42:30;13.00;;;8.15;;
13741;SDS011;8461;52.356;10.704;2022-12-18T04:44:55;12.00;;;7.60;;
13741;SDS011;8461;52.356;10.704;2022-12-18T04:47:21;14.43;;;8.73;;
13741;SDS011;8461;52.356;10.704;2022-12-18T04:49:46;12.17;;;6.60;;
13741;SDS011;8461;52.356;10.704;2022-12-18T04:52:12;15.30;;;7.53;;
13741;SDS011;8461;52.356;10.704;2022-12-18T04:54:37;15.47;;;9.43;;
13741;SDS011;8461;52.356;10.704;2022-12-18T04:57:03;12.30;;;8.40;;
13741;SDS011;8461;52.356;10.704;2022-12-18T04:59:28;13.27;;;8.33;;
13741;SDS011;8461;52.356;10.704;2022-12-18T05:01:54;14.60;;;9.13;;
13741;SDS011;8461;52.356;10.704;2022-12-18T05:04:19;21.23;;;9.23;;
13741;SDS011;8461;52.356;10.704;2022-12-18T05:06:45;17.43;;;8.87;;
13741;SDS011;8461;52.356;10.704;2022-12-18T05:09:10;18.53;;;8.70;;
13741;SDS011;8461;52.356;10.704;2022-12-18T05:11:36;18.43;;;8.97;;
13741;SDS011;8461;52.356;10.704;2022-12-18T05:14:02;14.53;;;7.63;;
13741;SDS011;8461;52.356;10.704;2022-12-18T05:16:27;14.63;;;8.10;;
13741;SDS011;8461;52.356;10.704;2022-12-18T05:18:53;14.33;;;7.63;;
13741;SDS011;8461;52.356;10.704;2022-12-18T05:21:19;13.87;;;7.90;;
13741;SDS011;8461;52.356;10.704;2022-12-18T05:23:44;14.07;;;8.13;;
13741;SDS011;8461;52.356;10.704;2022-12-18T05:26:11;16.30;;;8.10;;
13741;SDS011;8461;52.356;10.704;2022-12-18T05:28:40;12.55;;;6.88;;
13741;SDS011;8461;52.356;10.704;2022-12-18T05:31:06;17.07;;;9.47;;
13741;SDS011;8461;52.356;10.704;2022-12-18T05:33:32;12.53;;;7.07;;
13741;SDS011;8461;52.356;10.704;2022-12-18T05:36:00;11.45;;;7.50;;
13741;SDS011;8461;52.356;10.704;2022-12-18T05:38:26;11.95;;;6.95;;
13741;SDS011;8461;52.356;10.704;2022-12-18T05:40:53;19.77;;;9.02;;
13741;SDS011;8461;52.356;10.704;2022-12-18T05:43:19;14.45;;;7.63;;
13741;SDS011;8461;52.356;10.704;2022-12-18T05:45:49;18.33;;;8.70;;
13741;SDS011;8461;52.356;10.704;2022-12-18T05:48:15;15.57;;;8.47;;
13741;SDS011;8461;52.356;10.704;2022-12-18T05:50:42;15.68;;;8.27;;
13741;SDS011;8461;52.356;10.704;2022-12-18T05:53:10;16.15;;;10.00;;
13741;SDS011;8461;52.356;10.704;2022-12-18T05:55:37;14.40;;;8.75;;
13741;SDS011;8461;52.356;10.704;2022-12-18T05:58:04;16.25;;;8.68;;
13741;SDS011;8461;52.356;10.704;2022-12-18T06:00:31;13.20;;;7.55;;
13741;SDS011;8461;52.356;10.704;2022-12-18T06:02:59;14.80;;;8.02;;
13741;SDS011;8461;52.356;10.704;2022-12-18T06:05:25;15.20;;;8.93;;
13741;SDS011;8461;52.356;10.704;2022-12-18T06:07:51;15.77;;;8.37;;
13741;SDS011;8461;52.356;10.704;2022-12-18T06:10:16;15.80;;;9.00;;
13741;SDS011;8461;52.356;10.704;2022-12-18T06:12:42;9.23;;;5.00;;
13741;SDS011;8461;52.356;10.704;2022-12-18T06:15:07;16.83;;;8.43;;
13741;SDS011;8461;52.356;10.704;2022-12-18T06:17:33;16.50;;;8.73;;
13741;SDS011;8461;52.356;10.704;2022-12-18T06:19:59;14.10;;;8.63;;
13741;SDS011;8461;52.356;10.704;2022-12-18T06:22:26;17.20;;;8.95;;
13741;SDS011;8461;52.356;10.704;2022-12-18T06:24:52;17.33;;;10.10;;
13741;SDS011;8461;52.356;10.704;2022-12-18T06:27:18;16.80;;;8.90;;
13741;SDS011;8461;52.356;10.704;2022-12-18T06:29:43;16.90;;;9.97;;
13741;SDS011;8461;52.356;10.704;2022-12-18T06:32:09;11.70;;;7.63;;
13741;SDS011;8461;52.356;10.704;2022-12-18T06:34:36;14.73;;;8.53;;
13741;SDS011;8461;52.356;10.704;2022-12-18T06:37:02;11.38;;;7.97;;
13741;SDS011;8461;52.356;10.704;2022-12-18T06:39:28;12.20;;;6.73;;
13741;SDS011;8461;52.356;10.704;2022-12-18T06:41:53;14.90;;;7.80;;
13741;SDS011;8461;52.356;10.704;2022-12-18T06:44:19;12.70;;;7.63;;
13741;SDS011;8461;52.356;10.704;2022-12-18T06:46:44;18.83;;;9.43;;
13741;SDS011;8461;52.356;10.704;2022-12-18T06:49:10;14.37;;;8.80;;
13741;SDS011;8461;52.356;10.704;2022-12-18T06:51:36;17.53;;;9.27;;
13741;SDS011;8461;52.356;10.704;2022-12-18T06:54:01;16.93;;;9.70;;
13741;SDS011;8461;52.356;10.704;2022-12-18T06:56:27;19.57;;;9.90;;
13741;SDS011;8461;52.356;10.704;2022-12-18T06:58:53;17.97;;;9.73;;
13741;SDS011;8461;52.356;10.704;2022-12-18T07:01:18;16.53;;;10.13;;
13741;SDS011;8461;52.356;10.704;2022-12-18T07:03:44;24.00;;;13.20;;
13741;SDS011;8461;52.356;10.704;2022-12-18T07:06:16;20.30;;;11.40;;
13741;SDS011;8461;52.356;10.704;2022-12-18T07:08:44;17.60;;;10.85;;
13741;SDS011;8461;52.356;10.704;2022-12-18T07:11:10;21.65;;;9.82;;
13741;SDS011;8461;52.356;10.704;2022-12-18T07:13:36;22.83;;;10.10;;
13741;SDS011;8461;52.356;10.704;2022-12-18T07:16:12;20.70;;;9.80;;
13741;SDS011;8461;52.356;10.704;2022-12-18T07:18:41;18.38;;;9.73;;
13741;SDS011;8461;52.356;10.704;2022-12-18T07:21:09;20.37;;;9.33;;
13741;SDS011;8461;52.356;10.704;2022-12-18T07:23:42;14.20;;;9.15;;
13741;SDS011;8461;52.356;10.704;2022-12-18T07:26:10;22.35;;;10.90;;
13741;SDS011;8461;52.356;10.704;2022-12-18T07:28:37;20.15;;;10.27;;
13741;SDS011;8461;52.356;10.704;2022-12-18T07:31:06;17.25;;;9.15;;
13741;SDS011;8461;52.356;10.704;2022-12-18T07:33:37;18.90;;;9.88;;
13741;SDS011;8461;52.356;10.704;2022-12-18T07:36:03;21.57;;;10.73;;
13741;SDS011;8461;52.356;10.704;2022-12-18T07:38:30;18.02;;;9.63;;
13741;SDS011;8461;52.356;10.704;2022-12-18T07:41:00;21.70;;;11.27;;
13741;SDS011;8461;52.356;10.704;2022-12-18T07:43:27;24.85;;;10.88;;
13741;SDS011;8461;52.356;10.704;2022-12-18T07:45:53;18.40;;;10.30;;
13741;SDS011;8461;52.356;10.704;2022-12-18T07:48:19;17.33;;;9.93;;
13741;SDS011;8461;52.356;10.704;2022-12-18T07:50:44;20.30;;;10.97;;
13741;SDS011;8461;52.356;10.704;2022-12-18T07:53:10;14.77;;;8.03;;
13741;SDS011;8461;52.356;10.704;2022-12-18T07:55:35;17.63;;;10.17;;
13741;SDS011;8461;52.356;10.704;2022-12-18T07:58:03;18.23;;;9.60;;
13741;SDS011;8461;52.356;10.704;2022-12-18T08:00:29;12.10;;;7.35;;
13741;SDS011;8461;52.356;10.704;2022-12-18T08:02:55;10.40;;;7.38;;
13741;SDS011;8461;52.356;10.704;2022-12-18T08:05:21;11.67;;;7.17;;
13741;SDS011;8461;52.356;10.704;2022-12-18T08:07:47;12.07;;;7.40;;
13741;SDS011;8461;52.356;10.704;2022-12-18T08:10:13;13.53;;;7.17;;
13741;SDS011;8461;52.356;10.704;2022-12-18T08:12:38;15.23;;;7.67;;
13741;SDS011;8461;52.356;10.704;2022-12-18T08:15:04;12.77;;;6.83;;
13741;SDS011;8461;52.356;10.704;2022-12-18T08:17:30;15.20;;;8.35;;
13741;SDS011;8461;52.356;10.704;2022-12-18T08:19:56;14.60;;;8.10;;
13741;SDS011;8461;52.356;10.704;2022-12-18T08:22:21;13.53;;;7.93;;
13741;SDS011;8461;52.356;10.704;2022-12-18T08:24:47;14.47;;;8.37;;
13741;SDS011;8461;52.356;10.704;2022-12-18T08:27:12;18.57;;;9.63;;
13741;SDS011;8461;52.356;10.704;2022-12-18T08:29:38;15.80;;;8.77;;
13741;SDS011;8461;52.356;10.704;2022-12-18T08:32:04;17.27;;;8.50;;
13741;SDS011;8461;52.356;10.704;2022-12-18T08:34:29;16.63;;;9.50;;
13741;SDS011;8461;52.356;10.704;2022-12-18T08:36:55;22.40;;;10.63;;
13741;SDS011;8461;52.356;10.704;2022-12-18T08:39:20;30.70;;;13.93;;
13741;SDS011;8461;52.356;10.704;2022-12-18T08:41:46;36.37;;;15.87;;
13741;SDS011;8461;52.356;10.704;2022-12-18T08:44:32;32.53;;;15.65;;
13741;SDS011;8461;52.356;10.704;2022-12-18T08:47:06;43.13;;;18.65;;
13741;SDS011;8461;52.356;10.704;2022-12-18T08:49:33;43.97;;;20.63;;
13741;SDS011;8461;52.356;10.704;2022-12-18T08:51:59;27.50;;;13.38;;
13741;SDS011;8461;52.356;10.704;2022-12-18T08:54:26;23.15;;;13.32;;
13741;SDS011;8461;52.356;10.704;2022-12-18T08:56:52;19.58;;;10.52;;
13741;SDS011;8461;52.356;10.704;2022-12-18T08:59:18;20.97;;;10.07;;
13741;SDS011;8461;52.356;10.704;2022-12-18T09:01:44;17.02;;;5.55;;
13741;SDS011;8461;52.356;10.704;2022-12-18T09:04:11;25.08;;;12.70;;
13741;SDS011;8461;52.356;10.704;2022-12-18T09:06:37;16.63;;;10.67;;
13741;SDS011;8461;52.356;10.704;2022-12-18T09:09:04;11.20;;;6.15;;
13741;SDS011;8461;52.356;10.704;2022-12-18T09:11:30;11.77;;;7.18;;
13741;SDS011;8461;52.356;10.704;2022-12-18T09:13:57;13.02;;;7.88;;
13741;SDS011;8461;52.356;10.704;2022-12-18T09:16:24;9.70;;;6.30;;
13741;SDS011;8461;52.356;10.704;2022-12-18T09:18:50;18.60;;;10.15;;
13741;SDS011;8461;52.356;10.704;2022-12-18T09:21:19;17.27;;;10.77;;
13741;SDS011;8461;52.356;10.704;2022-12-18T09:23:49;15.13;;;9.57;;
13741;SDS011;8461;52.356;10.704;2022-12-18T09:26:15;16.47;;;8.80;;
13741;SDS011;8461;52.356;10.704;2022-12-18T09:28:42;15.87;;;8.27;;
13741;SDS011;8461;52.356;10.704;2022-12-18T09:31:08;14.53;;;9.07;;
13741;SDS011;8461;52.356;10.704;2022-12-18T09:33:40;15.48;;;9.70;;
13741;SDS011;8461;52.356;10.704;2022-12-18T09:36:06;18.13;;;11.17;;
13741;SDS011;8461;52.356;10.704;2022-12-18T09:38:34;12.80;;;8.27;;
13741;SDS011;8461;52.356;10.704;2022-12-18T09:41:16;16.27;;;9.80;;
13741;SDS011;8461;52.356;10.704;2022-12-18T09:44:04;21.23;;;12.00;;
13741;SDS011;8461;52.356;10.704;2022-12-18T09:49:44;19.70;;;12.77;;
13741;SDS011;8461;52.356;10.704;2022-12-18T09:52:16;19.57;;;11.33;;
13741;SDS011;8461;52.356;10.704;2022-12-18T09:57:55;35.47;;;19.40;;
13741;SDS011;8461;52.356;10.704;2022-12-18T10:00:26;20.73;;;12.67;;
13741;SDS011;8461;52.356;10.704;2022-12-18T10:02:53;21.27;;;12.80;;
13741;SDS011;8461;52.356;10.704;2022-12-18T10:10:46;21.37;;;11.83;;
13741;SDS011;8461;52.356;10.704;2022-12-18T10:16:17;16.83;;;11.10;;
13741;SDS011;8461;52.356;10.704;2022-12-18T10:21:23;43.77;;;20.70;;
13741;SDS011;8461;52.356;10.704;2022-12-18T10:24:16;30.77;;;18.73;;
13741;SDS011;8461;52.356;10.704;2022-12-18T10:27:09;27.97;;;17.07;;
13741;SDS011;8461;52.356;10.704;2022-12-18T10:29:44;37.40;;;20.73;;
13741;SDS011;8461;52.356;10.704;2022-12-18T10:32:15;37.97;;;19.43;;
13741;SDS011;8461;52.356;10.704;2022-12-18T10:34:49;24.10;;;15.27;;
13741;SDS011;8461;52.356;10.704;2022-12-18T10:37:17;25.67;;;15.60;;
13741;SDS011;8461;52.356;10.704;2022-12-18T10:39:45;20.20;;;12.10;;
13741;SDS011;8461;52.356;10.704;2022-12-18T10:42:19;20.17;;;13.00;;
13741;SDS011;8461;52.356;10.704;2022-12-18T10:44:45;18.33;;;12.10;;
13741;SDS011;8461;52.356;10.704;2022-12-18T10:47:12;22.70;;;13.33;;
13741;SDS011;8461;52.356;10.704;2022-12-18T10:49:47;18.50;;;11.53;;
13741;SDS011;8461;52.356;10.704;2022-12-18T10:54:46;12.40;;;8.00;;
13741;SDS011;8461;52.356;10.704;2022-12-18T10:57:28;16.93;;;11.43;;
13741;SDS011;8461;52.356;10.704;2022-12-18T10:59:56;21.87;;;11.40;;
13741;SDS011;8461;52.356;10.704;2022-12-18T11:02:28;16.73;;;11.47;;
13741;SDS011;8461;52.356;10.704;2022-12-18T11:04:59;16.00;;;8.87;;
13741;SDS011;8461;52.356;10.704;2022-12-18T11:07:26;16.70;;;10.33;;
13741;SDS011;8461;52.356;10.704;2022-12-18T11:10:18;22.63;;;14.57;;
13741;SDS011;8461;52.356;10.704;2022-12-18T11:12:44;21.20;;;13.47;;
13741;SDS011;8461;52.356;10.704;2022-12-18T11:15:19;25.30;;;14.83;;
13741;SDS011;8461;52.356;10.704;2022-12-18T11:17:55;12.00;;;6.47;;
13741;SDS011;8461;52.356;10.704;2022-12-18T11:20:31;20.93;;;12.70;;
13741;SDS011;8461;52.356;10.704;2022-12-18T11:23:00;22.73;;;13.97;;
13741;SDS011;8461;52.356;10.704;2022-12-18T11:25:29;12.40;;;7.13;;
13741;SDS011;8461;52.356;10.704;2022-12-18T11:27:56;21.83;;;12.37;;
13741;SDS011;8461;52.356;10.704;2022-12-18T11:30:35;19.83;;;11.47;;
13741;SDS011;8461;52.356;10.704;2022-12-18T11:33:20;18.37;;;11.33;;
13741;SDS011;8461;52.356;10.704;2022-12-18T11:35:51;17.23;;;11.83;;
13741;SDS011;8461;52.356;10.704;2022-12-18T11:38:38;18.83;;;12.03;;
13741;SDS011;8461;52.356;10.704;2022-12-18T11:43:54;15.83;;;10.23;;
13741;SDS011;8461;52.356;10.704;2022-12-18T11:46:29;14.50;;;9.10;;
13741;SDS011;8461;52.356;10.704;2022-12-18T11:48:59;14.67;;;9.93;;
13741;SDS011;8461;52.356;10.704;2022-12-18T11:51:38;9.83;;;6.77;;
13741;SDS011;8461;52.356;10.704;2022-12-18T11:54:13;10.97;;;6.57;;
13741;SDS011;8461;52.356;10.704;2022-12-18T11:56:43;12.20;;;7.10;;
13741;SDS011;8461;52.356;10.704;2022-12-18T11:59:21;11.53;;;7.07;;
13741;SDS011;8461;52.356;10.704;2022-12-18T12:02:12;17.10;;;10.67;;
13741;SDS011;8461;52.356;10.704;2022-12-18T12:07:37;12.77;;;7.37;;
13741;SDS011;8461;52.356;10.704;2022-12-18T12:18:28;14.23;;;7.67;;
13741;SDS011;8461;52.356;10.704;2022-12-18T12:26:10;16.87;;;8.83;;
13741;SDS011;8461;52.356;10.704;2022-12-18T12:28:52;11.40;;;6.80;;
13741;SDS011;8461;52.356;10.704;2022-12-18T12:31:51;11.53;;;6.60;;
13741;SDS011;8461;52.356;10.704;2022-12-18T12:34:26;11.20;;;7.13;;
13741;SDS011;8461;52.356;10.704;2022-12-18T12:37:23;13.27;;;7.33;;
13741;SDS011;8461;52.356;10.704;2022-12-18T12:40:14;9.20;;;6.20;;
13741;SDS011;8461;52.356;10.704;2022-12-18T12:42:46;10.37;;;5.63;;
13741;SDS011;8461;52.356;10.704;2022-12-18T12:45:57;8.50;;;5.93;;
13741;SDS011;8461;52.356;10.704;2022-12-18T12:50:58;8.77;;;5.53;;
13741;SDS011;8461;52.356;10.704;2022-12-18T12:53:33;9.90;;;5.70;;
13741;SDS011;8461;52.356;10.704;2022-12-18T12:56:01;8.73;;;4.50;;
13741;SDS011;8461;52.356;10.704;2022-12-18T12:58:41;7.40;;;5.33;;
13741;SDS011;8461;52.356;10.704;2022-12-18T13:01:23;10.30;;;6.00;;
13741;SDS011;8461;52.356;10.704;2022-12-18T13:06:33;7.17;;;5.67;;
13741;SDS011;8461;52.356;10.704;2022-12-18T13:09:23;10.00;;;6.13;;
13741;SDS011;8461;52.356;10.704;2022-12-18T13:11:49;7.17;;;3.87;;
13741;SDS011;8461;52.356;10.704;2022-12-18T13:14:34;6.83;;;5.07;;
13741;SDS011;8461;52.356;10.704;2022-12-18T13:22:42;7.73;;;4.63;;
13741;SDS011;8461;52.356;10.704;2022-12-18T13:25:34;10.33;;;5.53;;
13741;SDS011;8461;52.356;10.704;2022-12-18T13:35:42;29.63;;;16.77;;
13741;SDS011;8461;52.356;10.704;2022-12-18T13:40:58;13.80;;;9.03;;
13741;SDS011;8461;52.356;10.704;2022-12-18T13:46:02;12.80;;;8.80;;
13741;SDS011;8461;52.356;10.704;2022-12-18T13:51:55;14.73;;;9.20;;
13741;SDS011;8461;52.356;10.704;2022-12-18T13:56:49;15.50;;;9.27;;
13741;SDS011;8461;52.356;10.704;2022-12-18T14:01:50;23.43;;;12.23;;
13741;SDS011;8461;52.356;10.704;2022-12-18T14:04:27;21.30;;;11.37;;
13741;SDS011;8461;52.356;10.704;2022-12-18T14:06:56;12.03;;;7.53;;
13741;SDS011;8461;52.356;10.704;2022-12-18T14:09:36;10.43;;;6.40;;
13741;SDS011;8461;52.356;10.704;2022-12-18T14:12:04;15.50;;;9.37;;
13741;SDS011;8461;52.356;10.704;2022-12-18T14:14:49;13.07;;;9.43;;
13741;SDS011;8461;52.356;10.704;2022-12-18T14:17:17;20.80;;;13.00;;
13741;SDS011;8461;52.356;10.704;2022-12-18T14:19:47;16.17;;;9.67;;
13741;SDS011;8461;52.356;10.704;2022-12-18T14:22:16;17.77;;;11.40;;
13741;SDS011;8461;52.356;10.704;2022-12-18T14:27:47;20.00;;;11.97;;
13741;SDS011;8461;52.356;10.704;2022-12-18T14:30:35;19.00;;;11.30;;
13741;SDS011;8461;52.356;10.704;2022-12-18T14:35:35;16.93;;;10.00;;
13741;SDS011;8461;52.356;10.704;2022-12-18T14:38:10;12.50;;;7.73;;
13741;SDS011;8461;52.356;10.704;2022-12-18T14:40:36;9.87;;;7.67;;
13741;SDS011;8461;52.356;10.704;2022-12-18T14:43:01;12.57;;;7.97;;
13741;SDS011;8461;52.356;10.704;2022-12-18T14:45:37;8.50;;;5.37;;
13741;SDS011;8461;52.356;10.704;2022-12-18T14:48:20;12.17;;;8.70;;
13741;SDS011;8461;52.356;10.704;2022-12-18T14:53:32;13.57;;;9.30;;
13741;SDS011;8461;52.356;10.704;2022-12-18T14:56:00;14.43;;;6.87;;
13741;SDS011;8461;52.356;10.704;2022-12-18T14:58:27;16.30;;;9.17;;
13741;SDS011;8461;52.356;10.704;2022-12-18T15:00:52;15.07;;;9.73;;
13741;SDS011;8461;52.356;10.704;2022-12-18T15:03:18;11.60;;;7.73;;
13741;SDS011;8461;52.356;10.704;2022-12-18T15:05:46;13.93;;;9.23;;
13741;SDS011;8461;52.356;10.704;2022-12-18T15:08:34;8.97;;;5.17;;
13741;SDS011;8461;52.356;10.704;2022-12-18T15:11:01;12.53;;;8.43;;
13741;SDS011;8461;52.356;10.704;2022-12-18T15:13:27;16.43;;;9.43;;
13741;SDS011;8461;52.356;10.704;2022-12-18T15:15:54;12.37;;;7.77;;
13741;SDS011;8461;52.356;10.704;2022-12-18T15:18:25;9.47;;;6.23;;
13741;SDS011;8461;52.356;10.704;2022-12-18T15:20:57;12.87;;;7.37;;
13741;SDS011;8461;52.356;10.704;2022-12-18T15:23:45;10.07;;;5.47;;
13741;SDS011;8461;52.356;10.704;2022-12-18T15:26:16;9.53;;;7.43;;
13741;SDS011;8461;52.356;10.704;2022-12-18T15:28:45;8.23;;;4.40;;
13741;SDS011;8461;52.356;10.704;2022-12-18T15:34:11;9.90;;;7.20;;
13741;SDS011;8461;52.356;10.704;2022-12-18T15:36:37;10.43;;;6.73;;
13741;SDS011;8461;52.356;10.704;2022-12-18T15:39:03;5.77;;;4.23;;
13741;SDS011;8461;52.356;10.704;2022-12-18T15:41:30;10.67;;;7.80;;
13741;SDS011;8461;52.356;10.704;2022-12-18T15:43:58;12.93;;;6.53;;
13741;SDS011;8461;52.356;10.704;2022-12-18T15:46:24;7.57;;;4.93;;
13741;SDS011;8461;52.356;10.704;2022-12-18T15:48:51;11.17;;;6.63;;
13741;SDS011;8461;52.356;10.704;2022-12-18T15:53:52;6.33;;;3.63;;
13741;SDS011;8461;52.356;10.704;2022-12-18T15:56:19;8.30;;;6.30;;
13741;SDS011;8461;52.356;10.704;2022-12-18T15:59:11;8.73;;;4.43;;
13741;SDS011;8461;52.356;10.704;2022-12-18T16:01:38;9.53;;;6.53;;
13741;SDS011;8461;52.356;10.704;2022-12-18T16:04:04;8.07;;;5.40;;
13741;SDS011;8461;52.356;10.704;2022-12-18T16:06:30;11.17;;;7.23;;
13741;SDS011;8461;52.356;10.704;2022-12-18T16:08:55;7.23;;;4.77;;
13741;SDS011;8461;52.356;10.704;2022-12-18T16:16:49;9.37;;;5.70;;
13741;SDS011;8461;52.356;10.704;2022-12-18T16:19:16;10.43;;;7.10;;
13741;SDS011;8461;52.356;10.704;2022-12-18T16:21:42;8.43;;;5.63;;
13741;SDS011;8461;52.356;10.704;2022-12-18T16:24:19;9.03;;;5.10;;
13741;SDS011;8461;52.356;10.704;2022-12-18T16:26:49;7.90;;;6.20;;
13741;SDS011;8461;52.356;10.704;2022-12-18T16:29:19;11.40;;;7.77;;